sensor_id;sensor_type;location;lat;lon;timestamp;pressure;altitude;pressure_sealevel;temperature;humidity
34931;BME280;21134;49.646;8.560;2023-06-14T00:01:10;99976.91;;;18.63;47.82
34931;BME280;21134;49.646;8.560;2023-06-14T00:03:38;99978.22;;;18.52;48.02
34931;BME280;21134;49.646;8.560;2023-06-14T00:06:05;99980.56;;;18.38;48.52
34931;BME280;21134;49.646;8.560;2023-06-14T00:08:31;99980.69;;;18.35;48.67
34931;BME280;21134;49.646;8.560;2023-06-14T00:10:58;99979.41;;;18.23;48.98
34931;BME280;21134;49.646;8.560;2023-06-14T00:13:25;99981.94;;;18.25;48.78
34931;BME280;21134;49.646;8.560;2023-06-14T00:15:53;99975.66;;;18.30;48.84
34931;BME280;21134;49.646;8.560;2023-06-14T00:18:20;99979.75;;;18.16;49.50
34931;BME280;21134;49.646;8.560;2023-06-14T00:20:49;99974.41;;;18.19;49.22
34931;BME280;21134;49.646;8.560;2023-06-14T00:23:16;99980.59;;;18.16;49.09
34931;BME280;21134;49.646;8.560;2023-06-14T00:25:42;99973.09;;;18.08;49.57
34931;BME280;21134;49.646;8.560;2023-06-14T00:28:09;99980.41;;;17.99;50.33
34931;BME280;21134;49.646;8.560;2023-06-14T00:30:35;99975.47;;;17.93;50.38
34931;BME280;21134;49.646;8.560;2023-06-14T00:33:03;99972.22;;;17.87;50.97
34931;BME280;21134;49.646;8.560;2023-06-14T00:35:30;99984.44;;;17.84;51.01
34931;BME280;21134;49.646;8.560;2023-06-14T00:37:56;99978.00;;;17.71;50.91
34931;BME280;21134;49.646;8.560;2023-06-14T00:40:23;99983.19;;;17.71;51.34
34931;BME280;21134;49.646;8.560;2023-06-14T00:42:50;99980.56;;;17.72;51.46
34931;BME280;21134;49.646;8.560;2023-06-14T00:45:16;99983.16;;;17.72;51.59
34931;BME280;21134;49.646;8.560;2023-06-14T00:47:43;99984.69;;;17.76;51.22
34931;BME280;21134;49.646;8.560;2023-06-14T00:50:11;99983.69;;;17.80;51.08
34931;BME280;21134;49.646;8.560;2023-06-14T00:52:39;99978.13;;;17.91;50.79
34931;BME280;21134;49.646;8.560;2023-06-14T00:55:06;99982.28;;;17.95;50.39
34931;BME280;21134;49.646;8.560;2023-06-14T00:57:32;99981.34;;;17.96;50.56
34931;BME280;21134;49.646;8.560;2023-06-14T01:00:03;99981.34;;;17.96;50.43
34931;BME280;21134;49.646;8.560;2023-06-14T01:02:34;99977.88;;;17.97;50.46
34931;BME280;21134;49.646;8.560;2023-06-14T01:05:02;99986.41;;;17.99;50.93
34931;BME280;21134;49.646;8.560;2023-06-14T01:07:34;99972.59;;;18.00;50.67
34931;BME280;21134;49.646;8.560;2023-06-14T01:10:15;99981.34;;;17.96;50.76
34931;BME280;21134;49.646;8.560;2023-06-14T01:12:52;99983.59;;;18.05;50.36
34931;BME280;21134;49.646;8.560;2023-06-14T01:15:20;99983.94;;;18.18;48.96
34931;BME280;21134;49.646;8.560;2023-06-14T01:17:49;99989.44;;;18.31;48.27
34931;BME280;21134;49.646;8.560;2023-06-14T01:20:17;99991.50;;;18.45;48.26
34931;BME280;21134;49.646;8.560;2023-06-14T01:22:50;99988.19;;;18.62;47.61
34931;BME280;21134;49.646;8.560;2023-06-14T01:25:18;99995.59;;;18.71;46.65
34931;BME280;21134;49.646;8.560;2023-06-14T01:27:47;99990.78;;;18.82;46.41
34931;BME280;21134;49.646;8.560;2023-06-14T01:30:16;99990.25;;;18.94;46.23
34931;BME280;21134;49.646;8.560;2023-06-14T01:32:44;99991.88;;;18.97;46.10
34931;BME280;21134;49.646;8.560;2023-06-14T01:35:11;99989.38;;;18.95;46.35
34931;BME280;21134;49.646;8.560;2023-06-14T01:37:39;99993.50;;;18.99;46.10
34931;BME280;21134;49.646;8.560;2023-06-14T01:40:09;99993.69;;;19.15;45.05
34931;BME280;21134;49.646;8.560;2023-06-14T01:42:37;99989.97;;;19.21;44.63
34931;BME280;21134;49.646;8.560;2023-06-14T01:45:06;99984.63;;;19.24;45.35
34931;BME280;21134;49.646;8.560;2023-06-14T01:47:33;99987.31;;;19.22;44.91
34931;BME280;21134;49.646;8.560;2023-06-14T01:50:00;99986.75;;;19.35;44.46
34931;BME280;21134;49.646;8.560;2023-06-14T01:52:27;99990.03;;;19.38;44.50
34931;BME280;21134;49.646;8.560;2023-06-14T01:54:54;99989.41;;;19.52;44.09
34931;BME280;21134;49.646;8.560;2023-06-14T01:57:23;99996.44;;;19.50;44.38
34931;BME280;21134;49.646;8.560;2023-06-14T01:59:50;99999.50;;;19.39;44.77
34931;BME280;21134;49.646;8.560;2023-06-14T02:02:16;99996.34;;;19.33;44.97
34931;BME280;21134;49.646;8.560;2023-06-14T02:04:43;99997.53;;;19.25;45.90
34931;BME280;21134;49.646;8.560;2023-06-14T02:07:12;100001.88;;;18.86;47.96
34931;BME280;21134;49.646;8.560;2023-06-14T02:09:39;100001.56;;;18.30;49.48
34931;BME280;21134;49.646;8.560;2023-06-14T02:12:07;100006.75;;;17.86;50.70
34931;BME280;21134;49.646;8.560;2023-06-14T02:14:34;100001.00;;;17.56;51.18
34931;BME280;21134;49.646;8.560;2023-06-14T02:17:01;100012.13;;;17.35;51.97
34931;BME280;21134;49.646;8.560;2023-06-14T02:19:27;100009.44;;;17.14;52.43
34931;BME280;21134;49.646;8.560;2023-06-14T02:21:54;100008.34;;;16.96;52.81
34931;BME280;21134;49.646;8.560;2023-06-14T02:24:20;100010.25;;;16.91;53.08
34931;BME280;21134;49.646;8.560;2023-06-14T02:26:48;100006.91;;;16.88;53.85
34931;BME280;21134;49.646;8.560;2023-06-14T02:29:15;100003.09;;;16.73;53.88
34931;BME280;21134;49.646;8.560;2023-06-14T02:31:43;100005.09;;;16.65;54.43
34931;BME280;21134;49.646;8.560;2023-06-14T02:34:12;100003.44;;;16.62;55.04
34931;BME280;21134;49.646;8.560;2023-06-14T02:36:38;100015.03;;;16.50;54.99
34931;BME280;21134;49.646;8.560;2023-06-14T02:39:07;100016.06;;;16.46;55.54
34931;BME280;21134;49.646;8.560;2023-06-14T02:41:34;100014.91;;;16.28;56.40
34931;BME280;21134;49.646;8.560;2023-06-14T02:44:01;100013.50;;;16.18;56.35
34931;BME280;21134;49.646;8.560;2023-06-14T02:46:27;100014.97;;;15.99;56.48
34931;BME280;21134;49.646;8.560;2023-06-14T02:48:55;100018.59;;;15.93;56.99
34931;BME280;21134;49.646;8.560;2023-06-14T02:51:21;100009.25;;;15.89;57.19
34931;BME280;21134;49.646;8.560;2023-06-14T02:53:48;100010.31;;;15.82;57.12
34931;BME280;21134;49.646;8.560;2023-06-14T02:56:15;100015.53;;;15.80;57.74
34931;BME280;21134;49.646;8.560;2023-06-14T02:58:42;100012.97;;;15.79;58.02
34931;BME280;21134;49.646;8.560;2023-06-14T03:01:09;100017.53;;;15.71;58.17
34931;BME280;21134;49.646;8.560;2023-06-14T03:03:39;100020.13;;;15.71;57.88
34931;BME280;21134;49.646;8.560;2023-06-14T03:06:07;100024.53;;;15.66;58.02
34931;BME280;21134;49.646;8.560;2023-06-14T03:08:34;100023.03;;;15.58;58.78
34931;BME280;21134;49.646;8.560;2023-06-14T03:11:04;100023.94;;;15.57;58.92
34931;BME280;21134;49.646;8.560;2023-06-14T03:13:31;100026.34;;;15.62;58.21
34931;BME280;21134;49.646;8.560;2023-06-14T03:15:58;100024.78;;;15.58;58.99
34931;BME280;21134;49.646;8.560;2023-06-14T03:18:25;100019.72;;;15.53;59.51
34931;BME280;21134;49.646;8.560;2023-06-14T03:20:52;100027.53;;;15.52;59.34
34931;BME280;21134;49.646;8.560;2023-06-14T03:23:20;100026.69;;;15.51;59.23
34931;BME280;21134;49.646;8.560;2023-06-14T03:25:47;100029.38;;;15.47;59.68
34931;BME280;21134;49.646;8.560;2023-06-14T03:28:13;100031.25;;;15.42;59.63
34931;BME280;21134;49.646;8.560;2023-06-14T03:30:40;100034.88;;;15.34;59.85
34931;BME280;21134;49.646;8.560;2023-06-14T03:33:06;100040.13;;;15.31;60.25
34931;BME280;21134;49.646;8.560;2023-06-14T03:35:33;100042.69;;;15.31;59.93
34931;BME280;21134;49.646;8.560;2023-06-14T03:38:00;100044.44;;;15.31;59.87
34931;BME280;21134;49.646;8.560;2023-06-14T03:40:29;100041.75;;;15.34;59.81
34931;BME280;21134;49.646;8.560;2023-06-14T03:42:56;100044.47;;;15.29;60.26
34931;BME280;21134;49.646;8.560;2023-06-14T03:45:22;100054.03;;;15.26;60.31
34931;BME280;21134;49.646;8.560;2023-06-14T03:47:49;100067.00;;;15.23;60.06
34931;BME280;21134;49.646;8.560;2023-06-14T03:50:17;100059.22;;;15.24;60.12
34931;BME280;21134;49.646;8.560;2023-06-14T03:52:43;100062.63;;;15.25;60.01
34931;BME280;21134;49.646;8.560;2023-06-14T03:55:10;100063.53;;;15.24;60.53
34931;BME280;21134;49.646;8.560;2023-06-14T03:57:39;100065.78;;;15.36;60.39
34931;BME280;21134;49.646;8.560;2023-06-14T04:00:07;100060.38;;;15.45;60.16
34931;BME280;21134;49.646;8.560;2023-06-14T04:02:34;100069.78;;;15.46;60.91
34931;BME280;21134;49.646;8.560;2023-06-14T04:05:01;100069.63;;;15.52;61.25
34931;BME280;21134;49.646;8.560;2023-06-14T04:07:28;100072.13;;;15.55;60.91
34931;BME280;21134;49.646;8.560;2023-06-14T04:09:55;100066.72;;;15.63;61.26
34931;BME280;21134;49.646;8.560;2023-06-14T04:12:21;100071.72;;;15.71;60.69
34931;BME280;21134;49.646;8.560;2023-06-14T04:14:49;100075.94;;;15.73;60.82
34931;BME280;21134;49.646;8.560;2023-06-14T04:17:16;100081.88;;;15.75;60.83
34931;BME280;21134;49.646;8.560;2023-06-14T04:19:42;100074.88;;;15.80;61.55
34931;BME280;21134;49.646;8.560;2023-06-14T04:22:09;100079.88;;;15.85;61.17
34931;BME280;21134;49.646;8.560;2023-06-14T04:24:36;100086.69;;;15.88;61.19
34931;BME280;21134;49.646;8.560;2023-06-14T04:27:03;100089.19;;;15.91;61.04
34931;BME280;21134;49.646;8.560;2023-06-14T04:29:30;100090.66;;;15.99;60.74
34931;BME280;21134;49.646;8.560;2023-06-14T04:31:58;100101.56;;;16.08;59.87
34931;BME280;21134;49.646;8.560;2023-06-14T04:34:26;100097.03;;;16.16;59.72
34931;BME280;21134;49.646;8.560;2023-06-14T04:36:59;100098.97;;;16.37;58.88
34931;BME280;21134;49.646;8.560;2023-06-14T04:39:26;100102.13;;;16.47;58.26
34931;BME280;21134;49.646;8.560;2023-06-14T04:41:53;100102.69;;;16.55;58.35
34931;BME280;21134;49.646;8.560;2023-06-14T04:44:22;100106.94;;;16.84;56.10
34931;BME280;21134;49.646;8.560;2023-06-14T04:46:49;100103.63;;;17.07;55.36
34931;BME280;21134;49.646;8.560;2023-06-14T04:49:18;100111.91;;;17.17;55.28
34931;BME280;21134;49.646;8.560;2023-06-14T04:51:45;100111.91;;;17.17;55.57
34931;BME280;21134;49.646;8.560;2023-06-14T04:54:12;100116.09;;;17.19;55.47
34931;BME280;21134;49.646;8.560;2023-06-14T04:56:40;100119.63;;;17.42;54.66
34931;BME280;21134;49.646;8.560;2023-06-14T04:59:07;100125.41;;;17.74;52.92
34931;BME280;21134;49.646;8.560;2023-06-14T05:01:34;100120.06;;;18.02;51.60
34931;BME280;21134;49.646;8.560;2023-06-14T05:04:00;100123.03;;;18.15;51.44
34931;BME280;21134;49.646;8.560;2023-06-14T05:06:29;100116.25;;;18.34;51.06
34931;BME280;21134;49.646;8.560;2023-06-14T05:08:56;100124.38;;;18.47;50.71
34931;BME280;21134;49.646;8.560;2023-06-14T05:11:22;100128.69;;;18.48;50.89
34931;BME280;21134;49.646;8.560;2023-06-14T05:13:49;100126.03;;;18.49;50.58
34931;BME280;21134;49.646;8.560;2023-06-14T05:16:15;100127.22;;;18.63;50.46
34931;BME280;21134;49.646;8.560;2023-06-14T05:18:44;100127.94;;;18.88;49.67
34931;BME280;21134;49.646;8.560;2023-06-14T05:21:11;100122.75;;;18.88;49.44
34931;BME280;21134;49.646;8.560;2023-06-14T05:23:39;100127.22;;;18.85;49.92
34931;BME280;21134;49.646;8.560;2023-06-14T05:26:05;100128.78;;;18.89;49.58
34931;BME280;21134;49.646;8.560;2023-06-14T05:28:32;100135.03;;;19.05;49.57
34931;BME280;21134;49.646;8.560;2023-06-14T05:30:58;100138.25;;;19.10;49.34
34931;BME280;21134;49.646;8.560;2023-06-14T05:33:25;100133.06;;;19.10;49.88
34931;BME280;21134;49.646;8.560;2023-06-14T05:35:52;100137.16;;;19.16;49.83
34931;BME280;21134;49.646;8.560;2023-06-14T05:38:19;100138.78;;;19.18;49.66
34931;BME280;21134;49.646;8.560;2023-06-14T05:40:47;100136.69;;;19.26;49.43
34931;BME280;21134;49.646;8.560;2023-06-14T05:43:13;100142.22;;;19.39;49.21
34931;BME280;21134;49.646;8.560;2023-06-14T05:45:40;100139.69;;;19.38;49.25
34931;BME280;21134;49.646;8.560;2023-06-14T05:48:06;100142.69;;;19.28;49.14
34931;BME280;21134;49.646;8.560;2023-06-14T05:50:33;100133.09;;;19.31;49.14
34931;BME280;21134;49.646;8.560;2023-06-14T05:52:59;100147.78;;;19.30;49.68
34931;BME280;21134;49.646;8.560;2023-06-14T05:55:26;100150.00;;;19.39;49.42
34931;BME280;21134;49.646;8.560;2023-06-14T05:57:54;100154.16;;;19.43;49.29
34931;BME280;21134;49.646;8.560;2023-06-14T06:00:21;100156.47;;;19.49;49.39
34931;BME280;21134;49.646;8.560;2023-06-14T06:02:47;100153.25;;;19.65;48.67
34931;BME280;21134;49.646;8.560;2023-06-14T06:05:14;100161.81;;;19.67;48.70
34931;BME280;21134;49.646;8.560;2023-06-14T06:07:42;100166.03;;;19.69;49.00
34931;BME280;21134;49.646;8.560;2023-06-14T06:10:10;100162.16;;;19.78;49.00
34931;BME280;21134;49.646;8.560;2023-06-14T06:12:37;100170.69;;;19.82;48.64
34931;BME280;21134;49.646;8.560;2023-06-14T06:15:06;100165.72;;;19.96;47.95
34931;BME280;21134;49.646;8.560;2023-06-14T06:17:33;100172.66;;;19.95;48.30
34931;BME280;21134;49.646;8.560;2023-06-14T06:20:00;100166.50;;;19.98;48.20
34931;BME280;21134;49.646;8.560;2023-06-14T06:22:26;100178.41;;;20.02;47.74
34931;BME280;21134;49.646;8.560;2023-06-14T06:24:53;100181.16;;;19.99;47.67
34931;BME280;21134;49.646;8.560;2023-06-14T06:27:19;100176.31;;;19.91;47.85
34931;BME280;21134;49.646;8.560;2023-06-14T06:29:46;100183.34;;;20.08;48.08
34931;BME280;21134;49.646;8.560;2023-06-14T06:32:15;100180.66;;;20.29;47.29
34931;BME280;21134;49.646;8.560;2023-06-14T06:34:41;100191.88;;;20.29;48.01
34931;BME280;21134;49.646;8.560;2023-06-14T06:37:08;100185.69;;;20.51;47.38
34931;BME280;21134;49.646;8.560;2023-06-14T06:39:34;100193.59;;;20.68;46.84
34931;BME280;21134;49.646;8.560;2023-06-14T06:42:01;100197.44;;;20.78;46.69
34931;BME280;21134;49.646;8.560;2023-06-14T06:44:27;100193.06;;;20.79;46.84
34931;BME280;21134;49.646;8.560;2023-06-14T06:46:54;100197.13;;;20.84;46.16
34931;BME280;21134;49.646;8.560;2023-06-14T06:49:22;100199.88;;;20.81;47.01
34931;BME280;21134;49.646;8.560;2023-06-14T06:51:59;100203.03;;;20.88;46.45
34931;BME280;21134;49.646;8.560;2023-06-14T06:54:26;100200.00;;;20.97;45.88
34931;BME280;21134;49.646;8.560;2023-06-14T06:56:52;100205.72;;;21.04;45.47
34931;BME280;21134;49.646;8.560;2023-06-14T06:59:19;100206.81;;;21.00;45.47
34931;BME280;21134;49.646;8.560;2023-06-14T07:01:46;100208.13;;;21.26;45.23
34931;BME280;21134;49.646;8.560;2023-06-14T07:04:13;100209.28;;;21.55;44.67
34931;BME280;21134;49.646;8.560;2023-06-14T07:06:41;100220.06;;;21.65;44.46
34931;BME280;21134;49.646;8.560;2023-06-14T07:09:08;100217.91;;;21.73;43.87
34931;BME280;21134;49.646;8.560;2023-06-14T07:11:38;100225.34;;;21.80;44.37
34931;BME280;21134;49.646;8.560;2023-06-14T07:14:04;100218.91;;;22.03;43.62
34931;BME280;21134;49.646;8.560;2023-06-14T07:16:31;100227.78;;;22.17;42.56
34931;BME280;21134;49.646;8.560;2023-06-14T07:18:58;100226.03;;;22.33;42.76
34931;BME280;21134;49.646;8.560;2023-06-14T07:21:25;100229.59;;;22.64;41.92
34931;BME280;21134;49.646;8.560;2023-06-14T07:23:53;100224.47;;;22.62;41.45
34931;BME280;21134;49.646;8.560;2023-06-14T07:26:20;100227.06;;;22.62;42.17
34931;BME280;21134;49.646;8.560;2023-06-14T07:28:47;100225.47;;;22.75;41.63
34931;BME280;21134;49.646;8.560;2023-06-14T07:31:15;100236.56;;;22.95;40.97
34931;BME280;21134;49.646;8.560;2023-06-14T07:33:42;100243.41;;;22.97;41.20
34931;BME280;21134;49.646;8.560;2023-06-14T07:36:08;100240.78;;;22.97;41.34
34931;BME280;21134;49.646;8.560;2023-06-14T07:38:35;100239.91;;;22.97;41.14
34931;BME280;21134;49.646;8.560;2023-06-14T07:41:03;100243.13;;;23.02;40.90
34931;BME280;21134;49.646;8.560;2023-06-14T07:43:29;100238.34;;;23.25;40.62
34931;BME280;21134;49.646;8.560;2023-06-14T07:45:56;100237.16;;;23.30;41.01
34931;BME280;21134;49.646;8.560;2023-06-14T07:48:23;100244.66;;;23.36;41.17
34931;BME280;21134;49.646;8.560;2023-06-14T07:50:49;100246.91;;;23.42;40.43
34931;BME280;21134;49.646;8.560;2023-06-14T07:53:16;100251.09;;;23.45;40.70
34931;BME280;21134;49.646;8.560;2023-06-14T07:55:42;100248.03;;;23.53;40.56
34931;BME280;21134;49.646;8.560;2023-06-14T07:58:10;100241.69;;;23.57;40.08
34931;BME280;21134;49.646;8.560;2023-06-14T08:00:37;100245.38;;;23.69;40.12
34931;BME280;21134;49.646;8.560;2023-06-14T08:03:03;100252.09;;;23.73;39.72
34931;BME280;21134;49.646;8.560;2023-06-14T08:05:30;100247.22;;;23.66;40.28
34931;BME280;21134;49.646;8.560;2023-06-14T08:07:57;100240.63;;;23.89;40.20
34931;BME280;21134;49.646;8.560;2023-06-14T08:10:23;100242.06;;;23.81;40.22
34931;BME280;21134;49.646;8.560;2023-06-14T08:12:50;100247.00;;;24.00;39.98
34931;BME280;21134;49.646;8.560;2023-06-14T08:15:18;100243.81;;;24.09;40.43
34931;BME280;21134;49.646;8.560;2023-06-14T08:17:45;100244.09;;;24.04;39.51
34931;BME280;21134;49.646;8.560;2023-06-14T08:20:12;100241.66;;;24.01;39.92
34931;BME280;21134;49.646;8.560;2023-06-14T08:22:42;100247.25;;;24.24;39.41
34931;BME280;21134;49.646;8.560;2023-06-14T08:25:09;100248.28;;;24.35;39.70
34931;BME280;21134;49.646;8.560;2023-06-14T08:27:36;100248.75;;;24.28;39.85
34931;BME280;21134;49.646;8.560;2023-06-14T08:30:03;100249.53;;;24.44;39.05
34931;BME280;21134;49.646;8.560;2023-06-14T08:32:31;100243.94;;;24.63;38.36
34931;BME280;21134;49.646;8.560;2023-06-14T08:34:57;100242.84;;;24.53;39.49
34931;BME280;21134;49.646;8.560;2023-06-14T08:37:24;100235.50;;;24.45;39.13
34931;BME280;21134;49.646;8.560;2023-06-14T08:39:52;100236.22;;;24.47;39.23
34931;BME280;21134;49.646;8.560;2023-06-14T08:42:21;100241.53;;;24.60;37.43
34931;BME280;21134;49.646;8.560;2023-06-14T08:44:47;100239.31;;;24.54;37.65
34931;BME280;21134;49.646;8.560;2023-06-14T08:47:15;100253.75;;;24.74;37.43
34931;BME280;21134;49.646;8.560;2023-06-14T08:49:46;100246.19;;;24.69;35.75
34931;BME280;21134;49.646;8.560;2023-06-14T08:52:15;100246.97;;;24.84;35.48
34931;BME280;21134;49.646;8.560;2023-06-14T08:54:46;100250.50;;;24.70;37.45
34931;BME280;21134;49.646;8.560;2023-06-14T08:57:14;100239.72;;;24.75;37.36
34931;BME280;21134;49.646;8.560;2023-06-14T08:59:46;100248.75;;;24.83;36.99
34931;BME280;21134;49.646;8.560;2023-06-14T09:02:17;100249.81;;;25.08;36.33
34931;BME280;21134;49.646;8.560;2023-06-14T09:04:48;100247.03;;;25.24;36.21
34931;BME280;21134;49.646;8.560;2023-06-14T09:07:15;100250.13;;;25.43;36.29
34931;BME280;21134;49.646;8.560;2023-06-14T09:09:42;100254.94;;;25.37;36.02
34931;BME280;21134;49.646;8.560;2023-06-14T09:12:10;100249.69;;;25.37;36.02
34931;BME280;21134;49.646;8.560;2023-06-14T09:14:37;100249.38;;;25.54;36.86
34931;BME280;21134;49.646;8.560;2023-06-14T09:17:07;100252.00;;;25.67;36.03
34931;BME280;21134;49.646;8.560;2023-06-14T09:19:33;100260.94;;;25.77;35.37
34931;BME280;21134;49.646;8.560;2023-06-14T09:22:03;100263.53;;;25.77;36.01
34931;BME280;21134;49.646;8.560;2023-06-14T09:24:29;100259.75;;;25.56;35.12
34931;BME280;21134;49.646;8.560;2023-06-14T09:26:56;100261.53;;;25.42;34.65
34931;BME280;21134;49.646;8.560;2023-06-14T09:29:23;100264.06;;;25.44;35.88
34931;BME280;21134;49.646;8.560;2023-06-14T09:31:49;100267.44;;;25.19;36.56
34931;BME280;21134;49.646;8.560;2023-06-14T09:34:16;100270.53;;;25.11;36.33
34931;BME280;21134;49.646;8.560;2023-06-14T09:36:43;100265.97;;;25.15;36.23
34931;BME280;21134;49.646;8.560;2023-06-14T09:39:16;100266.84;;;25.28;36.77
34931;BME280;21134;49.646;8.560;2023-06-14T09:41:43;100261.91;;;25.36;36.50
34931;BME280;21134;49.646;8.560;2023-06-14T09:44:11;100263.19;;;25.31;37.29
34931;BME280;21134;49.646;8.560;2023-06-14T09:46:37;100264.16;;;25.68;36.28
34931;BME280;21134;49.646;8.560;2023-06-14T09:49:05;100265.13;;;25.80;35.58
34931;BME280;21134;49.646;8.560;2023-06-14T09:51:31;100264.75;;;25.98;35.17
34931;BME280;21134;49.646;8.560;2023-06-14T09:53:59;100275.50;;;26.19;35.08
34931;BME280;21134;49.646;8.560;2023-06-14T09:56:28;100275.63;;;26.18;33.71
34931;BME280;21134;49.646;8.560;2023-06-14T09:58:56;100273.31;;;26.26;33.70
34931;BME280;21134;49.646;8.560;2023-06-14T10:01:23;100269.22;;;26.22;33.59
34931;BME280;21134;49.646;8.560;2023-06-14T10:03:50;100271.75;;;26.11;34.26
34931;BME280;21134;49.646;8.560;2023-06-14T10:06:22;100268.16;;;26.25;33.83
34931;BME280;21134;49.646;8.560;2023-06-14T10:08:50;100262.91;;;26.37;33.50
34931;BME280;21134;49.646;8.560;2023-06-14T10:11:18;100257.16;;;26.19;33.96
34931;BME280;21134;49.646;8.560;2023-06-14T10:13:47;100265.31;;;26.28;34.26
34931;BME280;21134;49.646;8.560;2023-06-14T10:16:17;100269.63;;;26.16;33.81
34931;BME280;21134;49.646;8.560;2023-06-14T10:18:50;100267.03;;;26.03;33.86
34931;BME280;21134;49.646;8.560;2023-06-14T10:21:21;100271.00;;;26.09;34.12
34931;BME280;21134;49.646;8.560;2023-06-14T10:23:51;100264.13;;;25.95;34.12
34931;BME280;21134;49.646;8.560;2023-06-14T10:26:19;100258.44;;;26.01;34.31
34931;BME280;21134;49.646;8.560;2023-06-14T10:28:59;100264.38;;;26.29;34.25
34931;BME280;21134;49.646;8.560;2023-06-14T10:31:42;100269.78;;;26.02;34.29
34931;BME280;21134;49.646;8.560;2023-06-14T10:34:10;100260.19;;;25.49;34.97
34931;BME280;21134;49.646;8.560;2023-06-14T10:36:37;100268.63;;;25.27;34.96
34931;BME280;21134;49.646;8.560;2023-06-14T10:39:05;100269.94;;;24.93;35.79
34931;BME280;21134;49.646;8.560;2023-06-14T10:41:35;100258.25;;;24.99;35.40
34931;BME280;21134;49.646;8.560;2023-06-14T10:44:40;100262.38;;;24.89;36.55
34931;BME280;21134;49.646;8.560;2023-06-14T10:47:07;100264.31;;;24.99;36.40
34931;BME280;21134;49.646;8.560;2023-06-14T10:49:40;100267.50;;;25.44;35.58
34931;BME280;21134;49.646;8.560;2023-06-14T10:52:08;100270.94;;;25.85;34.91
34931;BME280;21134;49.646;8.560;2023-06-14T10:55:05;100265.31;;;26.53;32.88
34931;BME280;21134;49.646;8.560;2023-06-14T10:57:35;100263.19;;;26.82;32.47
34931;BME280;21134;49.646;8.560;2023-06-14T11:00:04;100264.56;;;26.88;32.99
34931;BME280;21134;49.646;8.560;2023-06-14T11:05:44;100263.72;;;26.38;33.92
34931;BME280;21134;49.646;8.560;2023-06-14T11:08:27;100269.50;;;26.80;33.65
34931;BME280;21134;49.646;8.560;2023-06-14T11:10:59;100264.72;;;26.98;32.69
34931;BME280;21134;49.646;8.560;2023-06-14T11:13:26;100263.69;;;27.35;32.98
34931;BME280;21134;49.646;8.560;2023-06-14T11:15:55;100267.41;;;27.79;31.51
34931;BME280;21134;49.646;8.560;2023-06-14T11:18:23;100266.72;;;27.18;32.97
34931;BME280;21134;49.646;8.560;2023-06-14T11:20:50;100266.13;;;26.54;33.94
34931;BME280;21134;49.646;8.560;2023-06-14T11:23:17;100260.84;;;26.04;34.61
34931;BME280;21134;49.646;8.560;2023-06-14T11:25:43;100267.34;;;25.98;34.57
34931;BME280;21134;49.646;8.560;2023-06-14T11:28:10;100263.25;;;26.20;34.01
34931;BME280;21134;49.646;8.560;2023-06-14T11:30:36;100265.81;;;26.58;33.42
34931;BME280;21134;49.646;8.560;2023-06-14T11:33:04;100269.13;;;26.73;33.24
34931;BME280;21134;49.646;8.560;2023-06-14T11:35:31;100266.59;;;26.96;32.96
34931;BME280;21134;49.646;8.560;2023-06-14T11:37:58;100268.13;;;27.35;32.75
34931;BME280;21134;49.646;8.560;2023-06-14T11:40:26;100264.31;;;27.50;31.90
34931;BME280;21134;49.646;8.560;2023-06-14T11:42:58;100267.38;;;27.33;32.63
34931;BME280;21134;49.646;8.560;2023-06-14T11:45:26;100272.69;;;26.96;32.80
34931;BME280;21134;49.646;8.560;2023-06-14T11:47:54;100265.38;;;26.64;33.49
34931;BME280;21134;49.646;8.560;2023-06-14T11:50:23;100265.13;;;26.18;34.16
34931;BME280;21134;49.646;8.560;2023-06-14T11:52:53;100272.25;;;26.16;34.48
34931;BME280;21134;49.646;8.560;2023-06-14T11:55:20;100261.78;;;26.16;34.33
34931;BME280;21134;49.646;8.560;2023-06-14T11:57:47;100268.88;;;26.52;33.70
34931;BME280;21134;49.646;8.560;2023-06-14T12:00:15;100260.53;;;26.71;33.93
34931;BME280;21134;49.646;8.560;2023-06-14T12:02:43;100255.72;;;26.89;32.75
34931;BME280;21134;49.646;8.560;2023-06-14T12:05:20;100263.16;;;26.71;32.94
34931;BME280;21134;49.646;8.560;2023-06-14T12:07:48;100261.47;;;26.70;32.64
34931;BME280;21134;49.646;8.560;2023-06-14T12:10:16;100260.06;;;26.53;33.00
34931;BME280;21134;49.646;8.560;2023-06-14T12:12:42;100263.06;;;26.60;32.74
34931;BME280;21134;49.646;8.560;2023-06-14T12:15:09;100256.56;;;26.65;32.82
34931;BME280;21134;49.646;8.560;2023-06-14T12:17:38;100259.50;;;27.33;31.41
34931;BME280;21134;49.646;8.560;2023-06-14T12:20:08;100252.56;;;27.78;32.04
34931;BME280;21134;49.646;8.560;2023-06-14T12:22:39;100255.69;;;27.95;31.17
34931;BME280;21134;49.646;8.560;2023-06-14T12:25:07;100260.97;;;27.84;31.32
34931;BME280;21134;49.646;8.560;2023-06-14T12:27:34;100254.56;;;27.75;31.10
34931;BME280;21134;49.646;8.560;2023-06-14T12:30:02;100255.94;;;28.03;31.11
34931;BME280;21134;49.646;8.560;2023-06-14T12:32:29;100260.47;;;28.46;30.95
34931;BME280;21134;49.646;8.560;2023-06-14T12:34:55;100247.88;;;28.72;30.10
34931;BME280;21134;49.646;8.560;2023-06-14T12:37:22;100260.09;;;28.39;30.33
34931;BME280;21134;49.646;8.560;2023-06-14T12:39:48;100257.16;;;28.21;30.60
34931;BME280;21134;49.646;8.560;2023-06-14T12:42:17;100259.56;;;27.55;30.41
34931;BME280;21134;49.646;8.560;2023-06-14T12:44:44;100249.44;;;27.16;30.77
34931;BME280;21134;49.646;8.560;2023-06-14T12:47:10;100249.91;;;26.73;31.92
34931;BME280;21134;49.646;8.560;2023-06-14T12:49:38;100252.47;;;26.85;32.93
34931;BME280;21134;49.646;8.560;2023-06-14T12:52:06;100254.78;;;26.90;32.48
34931;BME280;21134;49.646;8.560;2023-06-14T12:54:32;100250.06;;;26.82;33.08
34931;BME280;21134;49.646;8.560;2023-06-14T12:56:59;100256.28;;;27.29;32.09
34931;BME280;21134;49.646;8.560;2023-06-14T12:59:26;100235.72;;;27.23;31.94